Time;durP1;ratioP1;P1;durP2;ratioP2;P2;SDS_P1;SDS_P2;PMS_P1;PMS_P2;Temp;Humidity;BMP_temperature;BMP_pressure;BME280_temperature;BME280_humidity;BME280_pressure;Samples;Min_cycle;Max_cycle;Signal;HPM_P1;HPM_P2
2022/11/09 00:00:04;;;;;;;4.27;3.97;;;12.10;99.90;;;;;;5067959;28;20447;-81
2022/11/09 00:02:31;;;;;;;4.23;3.83;;;12.10;99.90;;;;;;5066891;28;20475;-81
2022/11/09 00:04:58;;;;;;;4.57;4.17;;;12.10;99.90;;;;;;5068106;28;20454;-81
2022/11/09 00:07:25;;;;;;;4.87;4.47;;;12.10;99.90;;;;;;5067443;28;20451;-81
2022/11/09 00:09:51;;;;;;;4.50;4.10;;;12.10;99.90;;;;;;5067827;28;20472;-81
2022/11/09 00:12:20;;;;;;;4.23;3.93;;;12.10;99.90;;;;;;5067580;28;20466;-81
2022/11/09 00:14:46;;;;;;;4.43;4.10;;;12.10;99.90;;;;;;5068284;28;20447;-81
2022/11/09 00:17:13;;;;;;;4.47;4.13;;;12.10;99.90;;;;;;5067078;28;20445;-81
2022/11/09 00:19:40;;;;;;;5.10;4.70;;;12.10;99.90;;;;;;5066625;28;20457;-81
2022/11/09 00:22:06;;;;;;;6.47;4.53;;;12.10;99.90;;;;;;5066924;28;20481;-81
2022/11/09 00:24:34;;;;;;;5.93;3.80;;;12.20;99.90;;;;;;5067609;28;20451;-81
2022/11/09 00:27:01;;;;;;;4.30;3.83;;;12.20;99.90;;;;;;5067609;28;20462;-81
2022/11/09 00:29:29;;;;;;;4.23;3.90;;;12.20;99.90;;;;;;5069998;28;20474;-81
2022/11/09 00:31:55;;;;;;;4.70;4.30;;;12.20;99.90;;;;;;5072154;28;20474;-81
2022/11/09 00:34:22;;;;;;;4.67;4.37;;;12.20;99.90;;;;;;5066618;28;20462;-81
2022/11/09 00:36:49;;;;;;;4.70;4.30;;;12.20;99.90;;;;;;5066821;28;20460;-81
2022/11/09 00:39:16;;;;;;;4.37;4.07;;;12.20;99.90;;;;;;5066645;28;20452;-81
2022/11/09 00:41:42;;;;;;;4.63;4.00;;;12.20;99.90;;;;;;5067110;28;20456;-82
2022/11/09 00:44:09;;;;;;;5.40;3.77;;;12.20;99.90;;;;;;5066608;28;20463;-81
2022/11/09 00:46:37;;;;;;;4.20;3.90;;;12.20;99.90;;;;;;5066085;28;20451;-81
2022/11/09 00:49:04;;;;;;;5.57;4.70;;;12.20;99.90;;;;;;5066900;28;20515;-81
2022/11/09 00:51:31;;;;;;;5.00;4.53;;;12.20;99.90;;;;;;5067429;28;20455;-81
2022/11/09 00:53:57;;;;;;;5.40;4.67;;;12.20;99.90;;;;;;5068747;28;20452;-81
2022/11/09 00:56:24;;;;;;;4.10;3.80;;;12.10;99.90;;;;;;5066784;28;20451;-81
2022/11/09 00:58:54;;;;;;;4.67;4.17;;;12.10;99.90;;;;;;5066226;28;20455;-81
2022/11/09 01:01:21;;;;;;;6.07;4.67;;;12.10;99.90;;;;;;5066003;28;20455;-81
2022/11/09 01:03:49;;;;;;;4.60;4.20;;;12.10;99.90;;;;;;5066215;28;20486;-81
2022/11/09 01:06:18;;;;;;;5.17;4.77;;;12.00;99.90;;;;;;5066410;28;20459;-80
2022/11/09 01:08:46;;;;;;;4.93;4.53;;;12.10;99.90;;;;;;5066195;28;20559;-81
2022/11/09 01:11:13;;;;;;;4.30;3.90;;;12.00;99.90;;;;;;5065834;28;20813;-81
2022/11/09 01:13:40;;;;;;;4.13;3.90;;;12.00;99.90;;;;;;5066114;28;20475;-81
2022/11/09 01:16:09;;;;;;;5.47;5.10;;;12.00;99.90;;;;;;5065908;28;20462;-81
2022/11/09 01:18:36;;;;;;;4.77;4.33;;;12.00;99.90;;;;;;5065309;28;20448;-81
2022/11/09 01:21:07;;;;;;;4.50;4.10;;;12.00;99.90;;;;;;5066293;28;20531;-81
2022/11/09 01:23:34;;;;;;;5.87;5.20;;;12.00;99.90;;;;;;5068375;28;20527;-82
2022/11/09 01:26:04;;;;;;;4.13;3.73;;;12.00;99.90;;;;;;5070444;28;20511;-81
2022/11/09 01:28:31;;;;;;;6.60;4.53;;;12.00;99.90;;;;;;5065587;28;20491;-81
2022/11/09 01:31:02;;;;;;;5.93;5.43;;;11.90;99.90;;;;;;5065385;28;20455;-81
2022/11/09 01:33:28;;;;;;;6.67;5.57;;;11.90;99.90;;;;;;5066241;28;20505;-81
2022/11/09 01:36:01;;;;;;;5.40;5.00;;;11.90;99.90;;;;;;5065839;28;20455;-82
2022/11/09 01:38:29;;;;;;;5.77;5.37;;;11.90;99.90;;;;;;5065512;28;20454;-81
2022/11/09 01:40:56;;;;;;;6.20;5.70;;;11.90;99.90;;;;;;5065609;28;20451;-81
2022/11/09 01:43:24;;;;;;;5.97;5.47;;;11.90;99.90;;;;;;5065877;28;20667;-81
2022/11/09 01:45:54;;;;;;;6.13;5.50;;;11.90;99.90;;;;;;5065838;28;20486;-81
2022/11/09 01:48:25;;;;;;;5.70;4.70;;;11.90;99.90;;;;;;5065524;28;20506;-82
2022/11/09 01:50:56;;;;;;;5.73;5.20;;;11.90;99.90;;;;;;5046199;28;20608;-81
2022/11/09 01:53:27;;;;;;;4.43;3.80;;;11.90;99.90;;;;;;5060051;28;20467;-82
2022/11/09 01:55:58;;;;;;;6.97;4.40;;;11.90;99.90;;;;;;5065318;28;20451;-81
2022/11/09 01:58:30;;;;;;;5.43;5.00;;;11.90;99.90;;;;;;5065341;28;20458;-80
2022/11/09 02:01:00;;;;;;;4.17;3.87;;;12.00;99.90;;;;;;5065631;28;20452;-81
2022/11/09 02:03:30;;;;;;;6.10;4.00;;;12.00;99.90;;;;;;5065148;28;20475;-81
2022/11/09 02:05:59;;;;;;;3.77;3.53;;;12.00;99.90;;;;;;5064633;28;20458;-81
2022/11/09 02:08:26;;;;;;;4.17;3.87;;;12.00;99.90;;;;;;5064797;28;20498;-81
2022/11/09 02:11:02;;;;;;;5.17;4.60;;;12.10;99.90;;;;;;5064867;28;20448;-81
2022/11/09 02:13:30;;;;;;;4.57;4.20;;;12.20;99.90;;;;;;5065540;28;20471;-81
2022/11/09 02:15:57;;;;;;;3.83;3.40;;;12.20;99.90;;;;;;5064952;28;20459;-81
2022/11/09 02:18:23;;;;;;;3.87;3.57;;;12.30;99.90;;;;;;5071989;28;20962;-81
2022/11/09 02:20:53;;;;;;;4.53;3.80;;;12.40;99.90;;;;;;5066122;28;20455;-81
2022/11/09 02:23:20;;;;;;;3.40;3.10;;;12.40;99.90;;;;;;5065269;28;20461;-81
2022/11/09 02:25:50;;;;;;;3.83;3.43;;;12.40;99.90;;;;;;5065578;28;20541;-81
2022/11/09 02:28:17;;;;;;;2.83;2.63;;;12.50;99.90;;;;;;5065121;28;20475;-81
2022/11/09 02:30:48;;;;;;;3.17;2.90;;;12.60;99.90;;;;;;5065315;28;20452;-81
2022/11/09 02:33:14;;;;;;;3.23;2.80;;;12.60;99.90;;;;;;5065241;28;20467;-81
2022/11/09 02:35:41;;;;;;;3.23;2.93;;;12.70;99.90;;;;;;5065227;28;20447;-81
2022/11/09 02:38:12;;;;;;;2.87;2.67;;;12.70;99.90;;;;;;5064550;28;20521;-81
2022/11/09 02:40:41;;;;;;;2.80;2.60;;;12.60;99.90;;;;;;5064931;28;20822;-81
2022/11/09 02:43:09;;;;;;;2.10;2.00;;;12.70;99.90;;;;;;5064727;28;20472;-81
2022/11/09 02:45:36;;;;;;;2.90;2.70;;;12.70;99.90;;;;;;5065127;28;20952;-81
2022/11/09 02:48:04;;;;;;;3.23;3.00;;;12.70;99.90;;;;;;5064710;28;20486;-81
2022/11/09 02:50:30;;;;;;;3.20;2.93;;;12.80;99.90;;;;;;5065589;28;20466;-81
2022/11/09 02:52:57;;;;;;;2.80;2.60;;;12.90;99.90;;;;;;5064829;28;20471;-81
2022/11/09 02:55:25;;;;;;;2.80;2.10;;;13.00;99.90;;;;;;5064103;28;20534;-81
2022/11/09 02:57:52;;;;;;;2.90;2.73;;;13.10;99.90;;;;;;5064677;28;20455;-81
2022/11/09 03:00:19;;;;;;;2.67;2.47;;;13.10;99.90;;;;;;5064430;28;20451;-81
2022/11/09 03:02:46;;;;;;;2.97;2.77;;;13.20;99.90;;;;;;5064601;28;20468;-81
2022/11/09 03:05:12;;;;;;;2.80;2.17;;;13.00;99.90;;;;;;5065164;28;20451;-81
2022/11/09 03:07:39;;;;;;;2.60;2.40;;;13.00;99.90;;;;;;5064849;28;20452;-81
2022/11/09 03:10:06;;;;;;;2.60;2.40;;;13.00;99.90;;;;;;5065255;28;20860;-81
2022/11/09 03:12:34;;;;;;;2.40;2.10;;;13.00;99.90;;;;;;5072546;28;20462;-81
2022/11/09 03:15:03;;;;;;;2.60;2.50;;;12.90;99.90;;;;;;5065108;28;20444;-81
2022/11/09 03:17:32;;;;;;;3.13;2.83;;;12.80;99.90;;;;;;5065213;28;20452;-81
2022/11/09 03:19:59;;;;;;;4.60;4.20;;;12.70;99.90;;;;;;5070882;28;20452;-81
2022/11/09 03:22:26;;;;;;;3.30;3.10;;;12.60;99.90;;;;;;5072218;28;20481;-82
2022/11/09 03:24:53;;;;;;;3.10;2.80;;;12.40;99.90;;;;;;5074065;28;20450;-83
2022/11/09 03:27:20;;;;;;;3.63;3.30;;;12.30;99.90;;;;;;5073042;28;20455;-82
2022/11/09 03:29:48;;;;;;;5.17;3.37;;;12.00;99.90;;;;;;5073388;28;20506;-82
2022/11/09 03:32:17;;;;;;;3.97;3.73;;;11.90;99.90;;;;;;5073784;28;20479;-82
2022/11/09 03:34:44;;;;;;;4.50;4.10;;;11.70;99.90;;;;;;5073811;28;20451;-83
2022/11/09 03:37:11;;;;;;;5.17;4.87;;;11.60;99.90;;;;;;5074709;28;20460;-83
2022/11/09 03:39:38;;;;;;;6.10;5.50;;;11.60;99.90;;;;;;5073962;28;20498;-83
2022/11/09 03:42:04;;;;;;;5.20;4.70;;;11.50;99.90;;;;;;5071826;28;20798;-83
2022/11/09 03:44:31;;;;;;;5.73;4.87;;;11.50;99.90;;;;;;5062784;28;20466;-84
2022/11/09 03:46:59;;;;;;;5.03;4.63;;;11.40;99.90;;;;;;5062333;28;20451;-83
2022/11/09 03:49:26;;;;;;;4.47;4.07;;;11.40;99.90;;;;;;5062510;28;20509;-83
2022/11/09 03:51:53;;;;;;;5.70;5.20;;;11.40;99.90;;;;;;5062210;28;20480;-83
2022/11/09 03:54:19;;;;;;;5.40;4.90;;;11.60;99.90;;;;;;5062117;28;20986;-84
2022/11/09 03:56:46;;;;;;;5.93;4.73;;;11.70;99.90;;;;;;5062346;28;20455;-84
2022/11/09 03:59:13;;;;;;;7.00;5.17;;;11.80;99.90;;;;;;5062354;28;20456;-83
2022/11/09 04:01:39;;;;;;;5.23;4.73;;;11.80;99.90;;;;;;5061903;28;20460;-83
2022/11/09 04:04:08;;;;;;;5.40;4.43;;;11.90;99.90;;;;;;5061865;28;20452;-84
2022/11/09 04:06:34;;;;;;;5.30;4.23;;;11.90;99.90;;;;;;5061461;28;20474;-83
2022/11/09 04:09:01;;;;;;;5.63;5.10;;;11.90;99.90;;;;;;5061338;28;20849;-83
2022/11/09 04:11:28;;;;;;;6.00;5.60;;;11.90;99.90;;;;;;5062575;28;20455;-84
2022/11/09 04:13:55;;;;;;;5.20;4.80;;;11.90;99.90;;;;;;5061427;28;20479;-83
2022/11/09 04:16:21;;;;;;;5.93;5.37;;;11.90;99.90;;;;;;5062031;28;20454;-84
2022/11/09 04:18:48;;;;;;;5.43;4.90;;;11.90;99.90;;;;;;5061469;28;20451;-84
2022/11/09 04:21:16;;;;;;;6.50;6.00;;;11.90;99.90;;;;;;5061978;28;20474;-83
2022/11/09 04:23:43;;;;;;;7.30;6.60;;;11.90;99.90;;;;;;5061435;28;20996;-83
2022/11/09 04:26:10;;;;;;;6.27;5.73;;;11.90;99.90;;;;;;5062425;28;20463;-84
2022/11/09 04:28:36;;;;;;;5.37;4.97;;;11.90;99.90;;;;;;5061198;28;20455;-84
2022/11/09 04:31:03;;;;;;;5.57;5.00;;;11.90;99.90;;;;;;5060414;28;20454;-83
2022/11/09 04:33:30;;;;;;;5.23;4.83;;;12.00;99.90;;;;;;5061528;28;20472;-84
2022/11/09 04:36:02;;;;;;;5.87;5.07;;;11.90;99.90;;;;;;5062067;28;20455;-84
2022/11/09 04:38:31;;;;;;;6.10;5.60;;;11.90;99.90;;;;;;5062673;28;20456;-83
2022/11/09 04:41:01;;;;;;;5.27;4.87;;;11.80;99.90;;;;;;5061812;28;20459;-84
2022/11/09 04:43:28;;;;;;;8.60;5.80;;;11.80;99.90;;;;;;5061858;28;20495;-83
2022/11/09 04:45:55;;;;;;;8.33;7.53;;;11.70;99.90;;;;;;5061208;28;20459;-83
2022/11/09 04:48:21;;;;;;;6.47;5.77;;;11.70;99.90;;;;;;5062679;28;20448;-83
2022/11/09 04:50:48;;;;;;;6.13;5.67;;;11.70;99.90;;;;;;5063131;28;20850;-83
2022/11/09 04:53:15;;;;;;;6.07;5.57;;;11.60;99.90;;;;;;5062945;28;20479;-83
2022/11/09 04:55:43;;;;;;;8.83;6.03;;;11.60;99.90;;;;;;5062038;28;20451;-83
2022/11/09 04:58:11;;;;;;;8.00;5.10;;;11.60;99.90;;;;;;5061144;28;20974;-83
2022/11/09 05:00:38;;;;;;;7.07;6.37;;;11.60;99.90;;;;;;5060497;28;20458;-83
2022/11/09 05:03:06;;;;;;;5.30;4.90;;;11.60;99.90;;;;;;5060852;28;20687;-83
2022/11/09 05:05:33;;;;;;;5.40;4.50;;;11.50;99.90;;;;;;5060619;28;20458;-83
2022/11/09 05:08:00;;;;;;;5.07;4.60;;;11.50;99.90;;;;;;5060785;28;20459;-83
2022/11/09 05:10:27;;;;;;;5.57;5.00;;;11.50;99.90;;;;;;5061028;28;20493;-82
2022/11/09 05:12:59;;;;;;;5.80;5.40;;;11.50;99.90;;;;;;5061637;28;20471;-83
2022/11/09 05:15:26;;;;;;;7.13;5.50;;;11.40;99.90;;;;;;5061049;28;20811;-83
2022/11/09 05:17:52;;;;;;;7.40;6.70;;;11.40;99.90;;;;;;5061219;28;20456;-83
2022/11/09 05:20:19;;;;;;;7.13;5.17;;;11.50;99.90;;;;;;5061010;28;20450;-83
2022/11/09 05:25:30;;;;;;;6.40;5.90;;;11.50;99.90;;;;;;5060737;28;20570;-83
2022/11/09 05:27:58;;;;;;;6.33;5.73;;;11.50;99.90;;;;;;5060766;28;20455;-83
2022/11/09 05:30:25;;;;;;;8.17;6.17;;;11.50;99.90;;;;;;5060438;28;20487;-83
2022/11/09 05:32:52;;;;;;;6.90;6.30;;;11.50;99.90;;;;;;5061061;28;20479;-83
2022/11/09 05:35:19;;;;;;;5.97;5.57;;;11.50;99.90;;;;;;5061578;28;20455;-83
2022/11/09 05:37:48;;;;;;;4.80;4.40;;;11.60;99.90;;;;;;5060432;28;20458;-83
2022/11/09 05:40:15;;;;;;;5.83;5.33;;;11.60;99.90;;;;;;5060924;28;20448;-83
2022/11/09 05:42:42;;;;;;;5.23;4.73;;;11.60;99.90;;;;;;5060585;28;20482;-83
2022/11/09 05:45:13;;;;;;;5.57;5.13;;;11.60;99.90;;;;;;5059956;28;20459;-83
2022/11/09 05:47:40;;;;;;;5.43;5.03;;;11.70;99.90;;;;;;5059140;28;20455;-82
2022/11/09 05:50:09;;;;;;;6.33;5.83;;;11.70;99.90;;;;;;5059664;28;21023;-83
2022/11/09 05:52:36;;;;;;;6.77;6.27;;;11.60;99.90;;;;;;5060159;28;20467;-83
2022/11/09 05:55:04;;;;;;;6.60;5.93;;;11.60;99.90;;;;;;5060018;28;20451;-83
2022/11/09 05:57:30;;;;;;;6.40;5.90;;;11.60;99.90;;;;;;5060424;28;20447;-83
2022/11/09 05:59:57;;;;;;;6.67;5.97;;;11.60;99.90;;;;;;5061505;28;20459;-84
2022/11/09 06:02:25;;;;;;;6.30;5.37;;;11.60;99.90;;;;;;5060217;28;20511;-83
2022/11/09 06:04:52;;;;;;;6.17;5.60;;;11.60;99.90;;;;;;5057064;28;20474;-82
2022/11/09 06:07:20;;;;;;;7.05;6.40;;;11.50;99.90;;;;;;5053291;28;20538;-83
2022/11/09 06:09:47;;;;;;;6.03;5.43;;;11.50;99.90;;;;;;5053310;28;20319;-81
2022/11/09 06:12:14;;;;;;;7.47;6.77;;;11.50;99.90;;;;;;5056293;28;20477;-83
2022/11/09 06:14:40;;;;;;;7.43;6.73;;;11.40;99.90;;;;;;5055559;28;20466;-83
2022/11/09 06:17:07;;;;;;;7.77;6.80;;;11.40;99.90;;;;;;5055109;28;20451;-83
2022/11/09 06:19:35;;;;;;;6.93;6.43;;;11.50;99.90;;;;;;5054994;28;20455;-84
2022/11/09 06:22:03;;;;;;;6.57;5.97;;;11.50;99.90;;;;;;5055878;28;20468;-84
2022/11/09 06:24:30;;;;;;;7.50;6.80;;;11.60;99.90;;;;;;5055739;28;20512;-85
2022/11/09 06:26:57;;;;;;;5.80;5.40;;;11.60;99.90;;;;;;5055199;28;20458;-83
2022/11/09 06:29:24;;;;;;;7.00;6.30;;;11.60;99.90;;;;;;5056188;28;20856;-85
2022/11/09 06:31:51;;;;;;;7.10;6.07;;;11.70;99.90;;;;;;5055137;28;20477;-83
2022/11/09 06:34:18;;;;;;;6.80;6.20;;;11.70;99.90;;;;;;5055944;28;20443;-84
2022/11/09 06:36:46;;;;;;;8.27;6.40;;;11.70;99.90;;;;;;5053930;28;20459;-82
2022/11/09 06:39:13;;;;;;;7.37;6.80;;;11.70;99.90;;;;;;5055992;28;20778;-84
2022/11/09 06:41:39;;;;;;;8.07;7.40;;;11.80;99.90;;;;;;5058358;28;20462;-84
2022/11/09 06:44:06;;;;;;;7.30;6.60;;;11.80;99.90;;;;;;5059609;28;20459;-84
2022/11/09 06:46:34;;;;;;;6.73;6.23;;;11.80;99.90;;;;;;5059356;28;20956;-82
2022/11/09 06:49:01;;;;;;;8.83;5.70;;;11.80;99.90;;;;;;5057558;28;20456;-83
2022/11/09 06:51:28;;;;;;;7.77;6.97;;;11.80;99.90;;;;;;5057657;28;20573;-83
2022/11/09 06:53:56;;;;;;;6.17;5.57;;;11.80;99.90;;;;;;5060769;28;20956;-83
2022/11/09 06:56:25;;;;;;;5.50;5.00;;;11.80;99.90;;;;;;5061754;28;20944;-85
2022/11/09 06:58:52;;;;;;;6.27;5.67;;;11.70;99.90;;;;;;5061881;28;20459;-82
2022/11/09 07:01:33;;;;;;;5.97;5.47;;;11.60;99.90;;;;;;5060739;28;20452;-84
2022/11/09 07:04:00;;;;;;;7.17;6.47;;;11.60;99.90;;;;;;5061990;28;20487;-83
2022/11/09 07:06:26;;;;;;;8.63;5.73;;;11.60;99.90;;;;;;5062930;28;20457;-83
2022/11/09 07:09:10;;;;;;;5.13;4.63;;;11.50;99.90;;;;;;5063477;28;20485;-84
2022/11/09 07:11:44;;;;;;;6.47;5.07;;;11.50;99.90;;;;;;5063054;28;20514;-83
2022/11/09 07:14:11;;;;;;;5.47;4.93;;;11.50;99.90;;;;;;5062920;28;20963;-84
2022/11/09 07:16:44;;;;;;;5.60;5.17;;;11.30;99.90;;;;;;5062478;28;20443;-83
2022/11/09 07:19:11;;;;;;;5.83;5.33;;;11.40;99.90;;;;;;5062581;28;20480;-84
2022/11/09 07:21:37;;;;;;;5.43;4.93;;;11.50;99.90;;;;;;5062162;28;20908;-84
2022/11/09 07:24:06;;;;;;;5.27;4.77;;;11.50;99.90;;;;;;5063469;28;20455;-84
2022/11/09 07:26:33;;;;;;;4.30;4.00;;;11.50;99.90;;;;;;5064233;28;20474;-83
2022/11/09 07:29:00;;;;;;;5.33;4.67;;;11.10;99.90;;;;;;5064180;28;20819;-85
2022/11/09 07:31:28;;;;;;;5.00;4.60;;;10.90;99.90;;;;;;5064403;28;20494;-84
2022/11/09 07:33:57;;;;;;;5.33;4.83;;;10.90;99.90;;;;;;5063368;28;20562;-84
2022/11/09 07:36:24;;;;;;;5.63;5.13;;;11.00;99.90;;;;;;5061102;28;20450;-84
2022/11/09 07:38:51;;;;;;;4.77;4.30;;;11.10;99.90;;;;;;5060418;28;20454;-83
2022/11/09 07:41:19;;;;;;;5.60;5.17;;;11.10;99.90;;;;;;5061409;28;20435;-83
2022/11/09 07:43:45;;;;;;;4.90;4.30;;;11.20;99.90;;;;;;5061258;28;20475;-84
2022/11/09 07:46:12;;;;;;;7.13;5.03;;;11.30;99.90;;;;;;5061195;28;20473;-83
2022/11/09 07:48:39;;;;;;;6.10;5.70;;;11.40;99.90;;;;;;5061332;28;20939;-84
2022/11/09 07:51:06;;;;;;;5.70;5.30;;;11.40;99.90;;;;;;5061171;28;20496;-83
2022/11/09 07:53:33;;;;;;;4.90;4.50;;;11.60;99.90;;;;;;5060975;28;20836;-83
2022/11/09 07:56:01;;;;;;;6.93;6.23;;;11.70;99.90;;;;;;5061103;28;20452;-83
2022/11/09 07:58:29;;;;;;;5.70;5.10;;;11.90;99.90;;;;;;5060915;28;20452;-84
2022/11/09 08:00:56;;;;;;;6.67;6.07;;;11.90;99.90;;;;;;5061376;28;20454;-84
2022/11/09 08:03:24;;;;;;;6.27;5.67;;;11.90;99.90;;;;;;5060576;28;20476;-83
2022/11/09 08:05:51;;;;;;;7.83;7.13;;;12.00;99.90;;;;;;5060706;28;20452;-84
2022/11/09 08:08:18;;;;;;;6.70;6.10;;;12.10;99.90;;;;;;5061013;28;20852;-84
2022/11/09 08:10:50;;;;;;;7.97;5.33;;;12.10;99.90;;;;;;5061202;28;20480;-84
2022/11/09 08:13:20;;;;;;;5.83;5.30;;;12.10;99.90;;;;;;5061485;28;20515;-83
2022/11/09 08:15:48;;;;;;;5.13;4.70;;;12.20;99.90;;;;;;5061222;28;20535;-83
2022/11/09 08:18:17;;;;;;;4.87;4.47;;;12.20;99.90;;;;;;5060915;28;20967;-83
2022/11/09 08:20:44;;;;;;;5.67;5.17;;;12.10;99.90;;;;;;5060997;28;20447;-83
2022/11/09 08:23:14;;;;;;;5.90;5.40;;;12.10;99.90;;;;;;5060735;28;20479;-83
2022/11/09 08:25:41;;;;;;;5.23;4.80;;;12.10;99.90;;;;;;5060579;28;20459;-84
2022/11/09 08:28:08;;;;;;;5.17;4.77;;;12.20;99.90;;;;;;5060928;28;20455;-83
2022/11/09 08:30:35;;;;;;;5.27;4.87;;;12.30;99.90;;;;;;5060219;28;20480;-83
2022/11/09 08:33:04;;;;;;;5.87;5.33;;;12.30;99.90;;;;;;5060575;28;20472;-83
2022/11/09 08:35:31;;;;;;;4.90;4.50;;;12.40;99.90;;;;;;5060640;28;20835;-83
2022/11/09 08:38:01;;;;;;;4.23;3.90;;;12.30;99.90;;;;;;5060296;28;20455;-83
2022/11/09 08:40:32;;;;;;;5.40;4.90;;;12.20;99.90;;;;;;5060712;28;20452;-83
2022/11/09 08:43:02;;;;;;;5.90;5.30;;;12.20;99.90;;;;;;5060258;28;20487;-83
2022/11/09 08:45:30;;;;;;;3.77;3.47;;;12.30;99.90;;;;;;5060224;28;20501;-83
2022/11/09 08:47:58;;;;;;;4.20;3.90;;;12.30;99.90;;;;;;5060560;28;20455;-83
2022/11/09 08:50:26;;;;;;;4.90;4.47;;;12.30;99.90;;;;;;5059640;28;20506;-83
2022/11/09 08:52:53;;;;;;;5.37;4.10;;;12.40;99.90;;;;;;5059778;28;20479;-83
2022/11/09 08:55:20;;;;;;;3.60;3.37;;;12.50;99.90;;;;;;5060232;28;20458;-83
2022/11/09 08:57:47;;;;;;;3.13;2.83;;;12.60;99.90;;;;;;5059714;28;20455;-83
2022/11/09 09:00:15;;;;;;;6.33;2.97;;;12.70;99.90;;;;;;5060033;28;20945;-83
2022/11/09 09:02:41;;;;;;;2.30;1.87;;;12.70;99.90;;;;;;5059489;28;20475;-83
2022/11/09 09:05:08;;;;;;;2.23;2.10;;;12.70;99.90;;;;;;5059996;28;20455;-83
2022/11/09 09:07:36;;;;;;;2.10;2.00;;;12.80;99.90;;;;;;5059664;28;20463;-82
2022/11/09 09:10:04;;;;;;;2.30;2.10;;;12.80;99.90;;;;;;5059772;28;20448;-83
2022/11/09 09:12:32;;;;;;;2.37;1.70;;;12.80;99.90;;;;;;5059830;28;20485;-83
2022/11/09 09:14:59;;;;;;;3.13;2.23;;;12.90;99.90;;;;;;5060051;28;20495;-83
2022/11/09 09:17:25;;;;;;;1.90;1.70;;;12.90;99.90;;;;;;5059584;28;20468;-83
2022/11/09 09:19:52;;;;;;;1.73;1.67;;;13.00;99.90;;;;;;5058924;28;20472;-83
2022/11/09 09:22:19;;;;;;;1.50;1.40;;;12.90;99.90;;;;;;5059238;28;20869;-83
2022/11/09 09:24:48;;;;;;;1.70;1.60;;;12.90;99.90;;;;;;5059519;28;20459;-83
2022/11/09 09:27:15;;;;;;;2.50;2.40;;;12.90;99.90;;;;;;5059227;28;20470;-83
2022/11/09 09:29:41;;;;;;;1.50;1.40;;;12.90;99.90;;;;;;5059128;28;20440;-83
2022/11/09 09:32:08;;;;;;;1.70;1.60;;;12.90;99.90;;;;;;5059392;28;21131;-83
2022/11/09 09:34:35;;;;;;;2.20;1.97;;;12.90;99.90;;;;;;5059389;28;20458;-83
2022/11/09 09:37:01;;;;;;;1.80;1.70;;;13.00;99.90;;;;;;5059360;28;20452;-83
2022/11/09 09:39:28;;;;;;;2.17;2.07;;;13.00;99.90;;;;;;5058700;28;20456;-83
2022/11/09 09:41:59;;;;;;;1.60;1.50;;;13.10;99.90;;;;;;5059784;28;20467;-83
2022/11/09 09:44:31;;;;;;;1.20;1.20;;;13.20;99.90;;;;;;5059636;28;20950;-83
2022/11/09 09:47:12;;;;;;;2.60;1.50;;;13.30;99.90;;;;;;5059334;28;20441;-83
2022/11/09 09:49:43;;;;;;;1.50;1.40;;;13.50;99.90;;;;;;5059421;28;20452;-83
2022/11/09 09:52:19;;;;;;;4.30;2.63;;;13.60;99.90;;;;;;5058870;28;20494;-83
2022/11/09 09:54:52;;;;;;;1.60;1.50;;;13.80;99.90;;;;;;5059462;28;20440;-83
2022/11/09 09:57:22;;;;;;;1.53;1.43;;;13.80;99.90;;;;;;5059453;28;20452;-83
2022/11/09 09:59:51;;;;;;;2.77;2.23;;;13.90;99.90;;;;;;5058730;28;20444;-83
2022/11/09 10:02:24;;;;;;;1.90;1.40;;;13.80;99.90;;;;;;5059202;28;20464;-84
2022/11/09 10:04:52;;;;;;;2.20;2.00;;;13.90;99.90;;;;;;5059605;28;20451;-83
2022/11/09 10:07:27;;;;;;;1.80;1.70;;;13.90;99.90;;;;;;5059036;28;20440;-83
2022/11/09 10:10:19;;;;;;;1.90;1.80;;;13.90;99.90;;;;;;5058462;28;20454;-84
2022/11/09 10:13:10;;;;;;;2.40;2.30;;;13.90;99.90;;;;;;5059048;28;20788;-83
2022/11/09 10:15:45;;;;;;;2.10;1.90;;;13.90;99.90;;;;;;5058764;28;20452;-82
2022/11/09 10:18:25;;;;;;;2.73;2.43;;;14.00;99.90;;;;;;5058467;28;20542;-83
2022/11/09 10:21:10;;;;;;;2.50;2.30;;;14.00;99.90;;;;;;5059350;28;20451;-83
2022/11/09 10:23:43;;;;;;;3.10;2.73;;;14.10;99.90;;;;;;5058832;28;20472;-83
2022/11/09 10:26:18;;;;;;;2.20;2.00;;;14.20;99.90;;;;;;5069188;28;20451;-83
2022/11/09 10:28:52;;;;;;;3.10;2.90;;;14.30;99.90;;;;;;5058671;28;20456;-82
2022/11/09 10:31:21;;;;;;;2.20;2.00;;;14.40;99.90;;;;;;5058888;28;20483;-83
2022/11/09 10:33:54;;;;;;;3.73;2.97;;;14.40;99.90;;;;;;5059014;28;20843;-83
2022/11/09 10:36:26;;;;;;;2.40;2.20;;;14.60;99.90;;;;;;5059403;28;20443;-83
2022/11/09 10:38:58;;;;;;;2.07;1.90;;;14.70;99.90;;;;;;5058412;28;20481;-83
2022/11/09 10:41:31;;;;;;;2.70;2.17;;;14.90;99.90;;;;;;5059579;28;20429;-83
2022/11/09 10:43:59;;;;;;;2.20;2.10;;;15.00;99.90;;;;;;5059009;28;20459;-83
2022/11/09 10:46:26;;;;;;;2.10;1.97;;;15.10;99.90;;;;;;5058721;28;20452;-83
2022/11/09 10:48:54;;;;;;;2.90;2.30;;;15.10;99.90;;;;;;5058729;28;20446;-83
2022/11/09 10:51:39;;;;;;;2.60;2.40;;;15.20;99.90;;;;;;5058851;28;20481;-83
2022/11/09 10:54:18;;;;;;;2.63;2.53;;;15.20;99.90;;;;;;5058656;28;20464;-82
2022/11/09 10:56:47;;;;;;;3.93;3.63;;;15.20;99.90;;;;;;5059555;28;20448;-83
2022/11/09 10:59:50;;;;;;;2.00;1.90;;;15.10;99.90;;;;;;5058691;28;20520;-83
2022/11/09 11:02:41;;;;;;;2.70;2.50;;;15.10;99.90;;;;;;5062237;28;20468;-83
2022/11/09 11:05:28;;;;;;;4.50;3.40;;;15.00;99.90;;;;;;5058700;28;20457;-83
2022/11/09 11:07:55;;;;;;;2.80;2.60;;;15.10;99.90;;;;;;5058986;28;20438;-83
2022/11/09 11:10:23;;;;;;;2.87;2.77;;;15.10;99.90;;;;;;5058360;28;20484;-83
2022/11/09 11:13:13;;;;;;;3.03;2.37;;;15.10;99.90;;;;;;5058682;28;20858;-86
2022/11/09 11:15:41;;;;;;;2.67;2.47;;;15.20;99.90;;;;;;5059135;28;20452;-83
2022/11/09 11:18:17;;;;;;;2.33;2.10;;;15.20;99.90;;;;;;5058670;28;20450;-83
2022/11/09 11:20:44;;;;;;;2.43;2.23;;;15.20;99.90;;;;;;5069550;28;20449;-82
2022/11/09 11:23:13;;;;;;;2.80;2.13;;;15.20;99.90;;;;;;5058433;28;20473;-83
2022/11/09 11:25:59;;;;;;;3.87;2.80;;;15.20;99.90;;;;;;5058358;28;20540;-83
2022/11/09 11:28:33;;;;;;;2.70;2.43;;;15.20;99.90;;;;;;5058241;28;20441;-83
2022/11/09 11:31:00;;;;;;;4.80;3.80;;;15.20;99.90;;;;;;5058348;28;20978;-83
2022/11/09 11:33:30;;;;;;;2.43;2.23;;;15.10;99.90;;;;;;5058017;28;20480;-83
2022/11/09 11:36:04;;;;;;;3.20;2.97;;;15.10;99.90;;;;;;5058471;28;20456;-83
2022/11/09 11:38:36;;;;;;;2.50;2.30;;;15.10;99.90;;;;;;5058229;28;20453;-83
2022/11/09 11:41:17;;;;;;;2.50;2.40;;;15.10;99.90;;;;;;5061399;28;20782;-83
2022/11/09 11:43:53;;;;;;;3.27;2.00;;;15.00;99.90;;;;;;5061976;28;20567;-83
2022/11/09 11:46:31;;;;;;;2.13;1.90;;;15.20;99.90;;;;;;5061824;28;20455;-83
2022/11/09 11:49:40;;;;;;;3.10;2.80;;;15.30;99.90;;;;;;5061065;28;20457;-83
2022/11/09 11:52:15;;;;;;;2.50;2.40;;;15.20;99.90;;;;;;5061374;28;20498;-84
2022/11/09 11:54:55;;;;;;;4.13;2.70;;;15.20;99.90;;;;;;5061862;28;20543;-83
2022/11/09 11:57:32;;;;;;;2.00;1.80;;;15.30;99.90;;;;;;5062037;28;20434;-84
2022/11/09 12:00:11;;;;;;;4.00;2.60;;;15.30;99.90;;;;;;5062564;28;20480;-84
2022/11/09 12:03:16;;;;;;;2.07;1.97;;;15.30;99.90;;;;;;5063196;28;20472;-84
2022/11/09 12:06:14;;;;;;;3.27;2.97;;;15.40;99.90;;;;;;5062297;28;20520;-84
2022/11/09 12:08:57;;;;;;;2.33;2.23;;;15.30;99.90;;;;;;5057609;28;20543;-84
2022/11/09 12:11:47;;;;;;;3.07;2.77;;;15.30;99.90;;;;;;5061874;28;20591;-84
2022/11/09 12:14:24;;;;;;;2.77;2.50;;;15.40;99.90;;;;;;5064136;28;20437;-82
2022/11/09 12:16:57;;;;;;;2.17;2.00;;;15.40;99.90;;;;;;5069479;28;20531;-83
2022/11/09 12:19:48;;;;;;;2.43;2.33;;;15.50;99.90;;;;;;5061450;28;20539;-83
2022/11/09 12:22:22;;;;;;;2.27;2.13;;;15.50;99.90;;;;;;5061446;28;20500;-84
2022/11/09 12:24:58;;;;;;;2.07;1.97;;;15.60;99.90;;;;;;5061549;28;20519;-83
2022/11/09 12:27:40;;;;;;;2.77;2.37;;;15.60;99.90;;;;;;5062072;28;20811;-83
2022/11/09 12:30:13;;;;;;;2.20;2.10;;;15.70;99.90;;;;;;5062056;28;20444;-83
2022/11/09 12:32:48;;;;;;;2.50;2.30;;;15.80;99.90;;;;;;5062021;28;20503;-83
2022/11/09 12:35:22;;;;;;;3.23;2.00;;;15.90;99.90;;;;;;5061448;28;20448;-84
2022/11/09 12:37:55;;;;;;;2.10;1.93;;;15.80;99.90;;;;;;5061718;28;20454;-82
2022/11/09 12:40:26;;;;;;;2.70;2.50;;;15.90;99.90;;;;;;5061149;28;20446;-84
2022/11/09 12:42:59;;;;;;;3.23;2.23;;;16.00;99.90;;;;;;5061393;28;20985;-83
2022/11/09 12:45:31;;;;;;;3.67;2.47;;;15.90;99.90;;;;;;5061661;28;20451;-83
2022/11/09 12:48:03;;;;;;;2.40;2.20;;;16.00;99.90;;;;;;5061695;28;20528;-84
2022/11/09 12:50:32;;;;;;;2.43;2.07;;;16.10;99.90;;;;;;5061671;28;20469;-84
2022/11/09 12:53:01;;;;;;;2.13;2.03;;;16.10;99.90;;;;;;5063161;28;20492;-83
2022/11/09 12:55:39;;;;;;;2.73;2.03;;;16.20;99.90;;;;;;5063004;28;20464;-83
2022/11/09 12:58:06;;;;;;;2.43;2.10;;;16.30;99.90;;;;;;5061511;28;20517;-84
2022/11/09 13:00:50;;;;;;;2.40;2.30;;;16.40;99.90;;;;;;5061610;28;20450;-84
2022/11/09 13:03:22;;;;;;;3.40;2.53;;;16.40;99.90;;;;;;5061233;28;20474;-84